Meath Environmental Platform

Observations for Trim Patrick St

Time AQI Temp °C Hum % Pres Pa CO μg/m³ H₂S μg/m³ NO μg/m³ NO₂ μg/m³ O₃ μg/m³ SO₂ μg/m³ PM1 μg/m³ PM2.5 μg/m³ PM10 μg/m³
Friday 31 July 2026
13:06 2 24.4 38 68,888 0 0 1.62 8.01 75.45 6.52 2.86 7.97 8.76
13:05 2 24.4 38 68,902 0 0 1.65 7.28 73.48 6.68 3.71 9.56 10.52
13:04 2 24.5 38 68,892 0 0 1.57 8.13 79.73 7.47 2.86 7.97 8.76
12:59 2 24.8 38 68,886 0 0 2.2 9.08 94.83 7.45 3.71 9.54 10.49
12:57 2 24.8 38 68,896 0 0 2.15 8.66 67.93 6.9 3.71 8.76 9.64
12:56 2 24.8 38 68,912 0 0 1.74 9.16 73.24 7.17 2.86 7.93 8.72
12:55 2 24.8 38 68,930 0 0.05 1.85 9.18 87.27 7.18 2.86 8.72 9.59
12:54 2 24.8 38 68,922 0 0 1.76 9.12 95.72 7.66 2 7.93 8.73
12:53 2 24.9 38 68,943 0 0 1.75 8.23 85.99 7.83 2.86 8.73 9.61
12:52 2 24.9 38 68,941 0 0 2.07 9.23 82.7 6.81 2.86 8.73 9.61
12:51 2 24.9 38 68,910 0 0 2.24 7.56 68.37 7.06 2.86 7.96 8.75
12:50 2 24.9 39 68,928 0 0 2.17 9.29 80.45 7.28 2.86 8.68 9.55
12:49 2 25 38 68,924 0 1.77 2.15 11.74 86.18 7.36 2.86 8.71 9.59
12:48 2 25 38 68,908 0 0 2.15 10.13 81.65 7.47 2.86 7.95 8.74
12:47 2 25 38 68,928 0 0 2.09 9.5 85.54 7.35 3.71 9.53 10.48
12:46 2 25 38 68,920 0 0 1.99 9.13 85.45 8.1 3.71 9.53 10.48
12:45 2 25 38 68,910 0 0 2.12 10.36 90.63 6.91 2.86 9.54 10.5
12:44 2 25 38 68,920 0 0 2.06 9.3 69.29 7.31 2.86 8.74 9.61
12:43 2 25 38 68,939 0 0 2.22 9.21 73.14 7.08 2.86 7.99 8.78
12:42 2 25 38 68,935 0 0 2.02 9.34 103.78 7.91 2.86 8.75 9.63